ADDS METAR Data INFO
IDs: Format: Raw Decoded Include TAF

Data at: 0950 UTC 25 Jun 2018

KCUL 250913Z AUTO 00000KT 10SM SCT040 BKN049 OVC060 21/21 A2997 RMK AO2 LTG DSNT SW
KCUL 250853Z AUTO 11005KT 10SM OVC060 21/21 A2995 RMK AO2 P0001
KCUL 250813Z AUTO 09005KT 7SM SCT006 BKN060 OVC120 21/21 A2995 RMK AO2 LTG DSNT S AND SW
KCUL 250753Z AUTO 08005KT 4SM -RA SCT007 BKN035 OVC060 21/21 A2995 RMK AO2 P0029
KCUL 250733Z AUTO 12006KT 4SM +RA SCT007 BKN028 OVC060 22/21 A2997 RMK AO2 LTG DSNT S AND SW P0006
KCUL 250715Z AUTO 12006KT 7SM SCT007 OVC060 21/21 A2995 RMK AO2 LTG DSNT SW
KCUL 250653Z AUTO 10008KT 10SM OVC060 22/21 A2995 RMK AO2 LTG DSNT SW P0003
KCUL 250633Z AUTO 11008KT 10SM OVC060 21/21 A2997 RMK AO2 LTG DSNT SW P0003
KCUL 250613Z AUTO 11010KT 4SM -RA SCT025 SCT033 OVC065 22/22 A2997 RMK AO2 P0003
KCUL 250553Z AUTO 13004KT 2 1/2SM +RA SCT004 BKN031 OVC065 22/22 A2998 RMK AO2 P0012
KCUL 250533Z AUTO 12005KT 2 1/2SM RA SCT004 SCT028 OVC065 22/22 A2997 RMK AO2 P0007
KCUL 250513Z AUTO 12006KT 4SM BR OVC060 22/22 A2998 RMK AO2 P0001
KCUL 250453Z AUTO 07006KT 3SM -RA SCT016 SCT028 OVC065 22/22 A2997 RMK AO2 P0010
KCUL 250433Z AUTO 34004KT 7SM SCT007 BKN060 OVC075 22/22 A2998 RMK AO2 LTG DSNT S
KCUL 250415Z AUTO 08008KT 7SM -RA SCT007 BKN055 OVC080 22/22 A2996 RMK AO2 LTG DSNT SE AND S
KCUL 250355Z AUTO 08003KT 10SM -RA SCT070 OVC090 22/22 A2997 RMK AO2 LTG DSNT SE THRU SW
KCUL 250333Z AUTO 02004KT 10SM BKN070 OVC100 22/22 A2998 RMK AO2 LTG DSNT SW
KCUL 250314Z AUTO 02008KT 7SM -DZ SCT070 OVC080 22/22 A2998 RMK AO2 LTG DSNT SE THRU SW
KCUL 250253Z AUTO 01004KT 10SM RA BKN070 OVC075 22/22 A2998 RMK AO2 LTG DSNT E
KCUL 250233Z AUTO 33003KT 10SM OVC080 22/21 A2998 RMK AO2 LTG DSNT N
KCUL 250213Z AUTO 00000KT 10SM SCT065 OVC090 22/21 A2997 RMK AO2 LTG DSNT E AND SE
KCUL 250133Z AUTO 17009G14KT 10SM -VCTSDZ SCT045 BKN090 OVC110 23/22 A2997 RMK AO2 LTG DSNT E THRU S P0003
KCUL 250053Z AUTO 21003KT 5SM RA OVC100 25/24 A2995 RMK AO2 LTG DSNT S THRU NW P0001
KCUL 250033Z AUTO 00000KT 10SM OVC110 26/24 A2994 RMK AO2 LTG DSNT SW AND NW
KCUL 250013Z AUTO 09003KT 10SM SCT120 26/24 A2992 RMK AO2 LTG DSNT SW
KCUL 242353Z AUTO 00000KT 10SM -RA SCT050 SCT070 BKN110 26/24 A2993 RMK AO2
KCUL 242335Z AUTO 00000KT 10SM SCT031 SCT110 27/23 A2994 RMK AO2
KCUL 242314Z AUTO 11003KT 10SM -RA SCT031 SCT050 BKN110 27/24 A2992 RMK AO2
KCUL 242253Z AUTO 09005KT 10SM BKN110 27/23 A2993 RMK AO2
KCUL 242234Z AUTO 10003KT 10SM CLR 28/23 A2993 RMK AO2
KCUL 242213Z AUTO 11005KT 10SM CLR 28/23 A2993 RMK AO2
KCUL 242153Z AUTO 10003KT 10SM SCT085 29/23 A2993 RMK AO2
KCUL 242133Z AUTO 00000KT 10SM SCT110 28/23 A2994 RMK AO2
KCUL 242055Z AUTO 00000KT 10SM CLR 28/23 A2993 RMK AO2
KCUL 242033Z AUTO 09003KT 10SM SCT033 SCT042 SCT050 28/23 A2993 RMK AO2 LTG DSNT SE
KCUL 241954Z AUTO 00000KT 10SM SCT035 SCT040 SCT070 29/22 A2994 RMK AO2
KCUL 241933Z AUTO 22006KT 10SM BKN035 BKN042 OVC085 28/22 A2997 RMK AO2
KCUL 241913Z AUTO 23003KT 10SM SCT043 SCT048 BKN085 29/22 A2996 RMK AO2 LTG DSNT S
KCUL 241853Z AUTO 00000KT 10SM SCT037 SCT043 BKN065 29/22 A2996 RMK AO2
KCUL 241833Z AUTO 10003KT 10SM BKN039 BKN047 29/22 A2997 RMK AO2 LTG DSNT SW
KCUL 241813Z AUTO 00000KT 10SM SCT040 29/21 A2997 RMK AO2
KCUL 241753Z AUTO 00000KT 10SM CLR 29/21 A2995 RMK AO2
KCUL 241733Z AUTO 00000KT 10SM SCT037 29/21 A2995 RMK AO2
KCUL 241713Z AUTO 09005KT 10SM CLR 29/21 A2994 RMK AO2
KCUL 241654Z AUTO 00000KT 10SM SCT036 29/21 A2995 RMK AO2
KCUL 241613Z AUTO 19003KT 10SM CLR 28/20 A2997 RMK AO2
KCUL 241535Z AUTO 00000KT 10SM CLR 28/21 A2996 RMK AO2
KCUL 241513Z AUTO 00000KT 10SM CLR 27/21 A2996 RMK AO2
KCUL 241453Z AUTO 01003KT 10SM CLR 27/21 A2995 RMK AO2
KCUL 241433Z AUTO 00000KT 10SM CLR 27/20 A2994 RMK AO2
KCUL 241413Z AUTO 00000KT 10SM CLR 26/21 A2994 RMK AO2
KCUL 241353Z AUTO 11003KT 10SM CLR 26/21 A2994 RMK AO2
KCUL 241333Z AUTO 00000KT 10SM CLR 26/22 A2993 RMK AO2
KCUL 241315Z AUTO 00000KT 10SM CLR 24/22 A2993 RMK AO2
KCUL 241253Z AUTO 00000KT 10SM CLR 24/22 A2993 RMK AO2
KCUL 241233Z AUTO 00000KT 10SM CLR 22/21 A2994 RMK AO2
KCUL 241213Z AUTO 00000KT 7SM SCT003 22/22 A2993 RMK AO2
KCUL 241134Z AUTO 00000KT 3/4SM BR OVC003 19/19 A2990 RMK AO2
KCUL 241113Z AUTO 00000KT 1 1/4SM BR OVC003 19/19 A2989 RMK AO2
KCUL 241033Z AUTO 00000KT 3SM BR SCT003 18/18 A2988 RMK AO2
KCUL 241015Z AUTO 00000KT 1 1/2SM BR BKN003 19/19 A2988 RMK AO2
KCUL 240953Z AUTO 00000KT 5SM BR SCT003 19/19 A2988 RMK AO2
KCUL 240933Z AUTO 00000KT 1SM BR BKN003 19/19 A2987 RMK AO2
KCUL 240913Z AUTO 00000KT 5SM BR CLR 19/19 A2988 RMK AO2
KCUL 240854Z AUTO 00000KT 7SM BR CLR 19/19 A2987 RMK AO2
KCUL 240833Z AUTO 00000KT 3SM BR CLR 19/19 A2987 RMK AO2
KCUL 240814Z AUTO 00000KT 4SM BR CLR 20/20 A2986 RMK AO2
KCUL 240733Z AUTO 00000KT 7SM CLR 20/20 A2985 RMK AO2
KCUL 240713Z AUTO 00000KT 5SM BR CLR 21/21 A2985 RMK AO2
KCUL 240653Z AUTO 00000KT 5SM BR SCT050 21/21 A2985 RMK AO2
KCUL 240634Z AUTO 00000KT 5SM BR BKN050 BKN065 22/22 A2985 RMK AO2
KCUL 240613Z AUTO 00000KT 7SM BKN055 22/22 A2985 RMK AO2
KCUL 240553Z AUTO 00000KT 7SM BKN055 22/22 A2985 RMK AO2 LTG DSNT E
KCUL 240533Z AUTO 00000KT 10SM BKN060 BKN065 OVC080 22/22 A2985 RMK AO2
KCUL 240513Z AUTO 00000KT 10SM BKN065 BKN080 21/21 A2984 RMK AO2
KCUL 240433Z AUTO 00000KT 10SM SCT060 22/21 A2984 RMK AO2
KCUL 240413Z AUTO 00000KT 7SM SCT085 22/21 A2984 RMK AO2 LTG DSNT SE
KCUL 240333Z AUTO 34004KT 10SM BKN080 22/22 A2984 RMK AO2
KCUL 240314Z AUTO 00000KT 10SM SCT065 22/22 A2983 RMK AO2 LTG DSNT SE
KCUL 240254Z AUTO 00000KT 10SM SCT065 22/22 A2983 RMK AO2 LTG DSNT SE
KCUL 240233Z AUTO 00000KT 10SM CLR 22/22 A2982 RMK AO2 LTG DSNT SE
KCUL 240213Z AUTO 00000KT 10SM CLR 23/23 A2980 RMK AO2 LTG DSNT S
KCUL 240153Z AUTO 00000KT 10SM CLR 23/22 A2980 RMK AO2 LTG DSNT S
KCUL 240133Z AUTO 00000KT 10SM CLR 24/23 A2979 RMK AO2 LTG DSNT S
KCUL 240115Z AUTO 00000KT 10SM SCT080 SCT110 25/22 A2979 RMK AO2 LTG DSNT S
KCUL 240053Z AUTO 00000KT 10SM SCT080 SCT090 OVC110 25/23 A2979 RMK AO2
KCUL 240033Z AUTO 00000KT 10SM SCT075 OVC085 26/22 A2980 RMK AO2
KCUL 240013Z AUTO 00000KT 10SM SCT085 OVC110 26/22 A2979 RMK AO2
KCUL 232354Z AUTO 00000KT 10SM OVC110 26/21 A2979 RMK AO2
KCUL 232333Z AUTO 00000KT 10SM BKN095 26/21 A2979 RMK AO2
KCUL 232314Z AUTO 00000KT 10SM SCT095 26/21 A2979 RMK AO2
KCUL 232254Z AUTO 00000KT 10SM SCT044 SCT055 BKN095 27/21 A2979 RMK AO2
KCUL 232233Z AUTO 23005KT 10SM BKN035 BKN046 OVC055 27/21 A2979 RMK AO2
KCUL 232215Z AUTO 00000KT 10SM BKN035 BKN100 27/21 A2979 RMK AO2
KCUL 232153Z AUTO 00000KT 10SM SCT035 SCT042 27/20 A2979 RMK AO2